Time;durP1;ratioP1;P1;durP2;ratioP2;P2;SDS_P1;SDS_P2;PMS_P1;PMS_P2;Temp;Humidity;BMP_temperature;BMP_pressure;BME280_temperature;BME280_humidity;BME280_pressure;Samples;Min_cycle;Max_cycle;Signal;HPM_P1;HPM_P2
2023/05/13 00:00:28;;;;;;;16.02;6.85;;;;;;;;;;5060631;28;20446;-75
2023/05/13 00:02:54;;;;;;;13.18;6.63;;;;;;;;;;5065279;28;20075;-74
2023/05/13 00:05:20;;;;;;;9.73;6.15;;;;;;;;;;5061194;28;20043;-75
2023/05/13 00:07:46;;;;;;;13.00;6.55;;;;;;;;;;5061852;28;20192;-74
2023/05/13 00:10:15;;;;;;;23.38;6.53;;;;;;;;;;5062501;28;20047;-74
2023/05/13 00:12:41;;;;;;;12.80;6.32;;;;;;;;;;5061717;28;21111;-75
2023/05/13 00:15:08;;;;;;;13.25;6.60;;;;;;;;;;5061574;28;20086;-75
2023/05/13 00:17:34;;;;;;;15.63;6.60;;;;;;;;;;5048503;28;20044;-74
2023/05/13 00:20:00;;;;;;;10.98;6.78;;;;;;;;;;5060739;28;20744;-74
2023/05/13 00:22:26;;;;;;;10.93;6.07;;;;;;;;;;5063227;28;20049;-76
2023/05/13 00:24:52;;;;;;;8.70;6.55;;;;;;;;;;5061480;28;20539;-74
2023/05/13 00:27:18;;;;;;;8.55;6.38;;;;;;;;;;5059528;28;20044;-75
2023/05/13 00:29:44;;;;;;;9.57;7.03;;;;;;;;;;5078641;28;20044;-75
2023/05/13 00:32:11;;;;;;;13.45;8.43;;;;;;;;;;5062927;28;20098;-75
2023/05/13 00:34:37;;;;;;;9.73;6.97;;;;;;;;;;5060742;28;20040;-74
2023/05/13 00:37:03;;;;;;;14.60;7.22;;;;;;;;;;5060483;28;20078;-75
2023/05/13 00:39:29;;;;;;;12.82;7.40;;;;;;;;;;5042394;28;20044;-75
2023/05/13 00:41:56;;;;;;;13.57;6.85;;;;;;;;;;5061395;28;20036;-75
2023/05/13 00:44:22;;;;;;;12.52;6.53;;;;;;;;;;5059882;28;20052;-75
2023/05/13 00:46:49;;;;;;;11.52;6.95;;;;;;;;;;5051279;28;20446;-75
2023/05/13 00:49:15;;;;;;;10.25;6.63;;;;;;;;;;5059251;28;20931;-75
2023/05/13 00:51:41;;;;;;;12.57;7.45;;;;;;;;;;5059407;28;20127;-75
2023/05/13 00:54:07;;;;;;;13.82;7.60;;;;;;;;;;5061071;28;20043;-75
2023/05/13 00:56:33;;;;;;;8.00;7.00;;;;;;;;;;5060699;28;20035;-75
2023/05/13 00:58:59;;;;;;;12.55;6.95;;;;;;;;;;5062658;28;20170;-74
2023/05/13 01:01:47;;;;;;;10.80;7.30;;;;;;;;;;5061442;28;20044;-74
2023/05/13 01:04:18;;;;;;;13.88;7.88;;;;;;;;;;5059532;28;20586;-75
2023/05/13 01:07:02;;;;;;;13.82;7.63;;;;;;;;;;5074467;28;20665;-75
2023/05/13 01:09:28;;;;;;;8.70;7.40;;;;;;;;;;5062069;28;20048;-75
2023/05/13 01:11:55;;;;;;;11.93;7.20;;;;;;;;;;5064454;28;20048;-75
2023/05/13 01:14:32;;;;;;;13.38;7.63;;;;;;;;;;5058628;28;20048;-74
2023/05/13 01:17:01;;;;;;;12.82;9.13;;;;;;;;;;5057742;28;20049;-75
2023/05/13 01:19:47;;;;;;;14.32;8.55;;;;;;;;;;5042277;28;20043;-74
2023/05/13 01:22:14;;;;;;;11.23;8.30;;;;;;;;;;5056989;28;20048;-74
2023/05/13 01:24:40;;;;;;;11.45;8.90;;;;;;;;;;5060366;28;20052;-75
2023/05/13 01:27:07;;;;;;;13.50;8.88;;;;;;;;;;5060648;28;20093;-74
2023/05/13 01:29:33;;;;;;;12.77;8.60;;;;;;;;;;5059514;28;20612;-74
2023/05/13 01:32:00;;;;;;;11.40;8.70;;;;;;;;;;5064668;28;20056;-75
2023/05/13 01:34:27;;;;;;;21.55;9.00;;;;;;;;;;5062008;28;20398;-75
2023/05/13 01:36:53;;;;;;;10.45;8.48;;;;;;;;;;5079034;28;20044;-74
2023/05/13 01:39:20;;;;;;;14.60;8.75;;;;;;;;;;5062051;28;20109;-75
2023/05/13 01:41:46;;;;;;;13.82;9.30;;;;;;;;;;5064776;28;20047;-74
2023/05/13 01:44:12;;;;;;;13.70;8.93;;;;;;;;;;5046721;28;20053;-74
2023/05/13 01:46:38;;;;;;;14.40;8.88;;;;;;;;;;5063123;28;20361;-74
2023/05/13 01:49:06;;;;;;;12.25;9.00;;;;;;;;;;5062727;28;20116;-75
2023/05/13 01:51:32;;;;;;;12.50;9.18;;;;;;;;;;5063338;28;20436;-75
2023/05/13 01:53:58;;;;;;;17.30;9.80;;;;;;;;;;5060817;28;20957;-74
2023/05/13 01:56:25;;;;;;;12.70;8.88;;;;;;;;;;5063424;28;20048;-75
2023/05/13 01:58:51;;;;;;;12.27;9.98;;;;;;;;;;5062522;28;20482;-75
2023/05/13 02:01:17;;;;;;;15.00;9.70;;;;;;;;;;5061608;28;20044;-75
2023/05/13 02:03:43;;;;;;;15.18;9.45;;;;;;;;;;5062077;28;20083;-74
2023/05/13 02:06:10;;;;;;;19.25;10.15;;;;;;;;;;5063955;28;21643;-74
2023/05/13 02:08:36;;;;;;;14.27;9.63;;;;;;;;;;5061272;28;20054;-75
2023/05/13 02:11:02;;;;;;;14.35;9.27;;;;;;;;;;5063993;28;20147;-75
2023/05/13 02:13:28;;;;;;;15.63;9.90;;;;;;;;;;5078921;28;20067;-74
2023/05/13 02:15:54;;;;;;;18.20;10.75;;;;;;;;;;5063563;28;20058;-74
2023/05/13 02:18:21;;;;;;;12.85;10.10;;;;;;;;;;5063764;28;20036;-74
2023/05/13 02:20:47;;;;;;;18.52;9.77;;;;;;;;;;5045631;28;20047;-75
2023/05/13 02:23:16;;;;;;;15.90;9.75;;;;;;;;;;5062493;28;20563;-75
2023/05/13 02:25:42;;;;;;;12.00;9.80;;;;;;;;;;5057060;28;20058;-74
2023/05/13 02:28:09;;;;;;;15.23;9.88;;;;;;;;;;5061689;28;20047;-75
2023/05/13 02:30:35;;;;;;;17.70;9.65;;;;;;;;;;5061762;28;20097;-74
2023/05/13 02:33:01;;;;;;;15.40;9.10;;;;;;;;;;5076396;28;20063;-74
2023/05/13 02:35:30;;;;;;;13.30;9.27;;;;;;;;;;5059994;28;20048;-75
2023/05/13 02:37:56;;;;;;;11.80;9.45;;;;;;;;;;5060988;28;20067;-74
2023/05/13 02:40:23;;;;;;;14.13;9.07;;;;;;;;;;5061339;28;20369;-74
2023/05/13 02:42:49;;;;;;;13.13;9.15;;;;;;;;;;5040445;28;20097;-75
2023/05/13 02:45:15;;;;;;;14.00;9.30;;;;;;;;;;5075344;27;20590;-75
2023/05/13 02:47:42;;;;;;;16.98;9.73;;;;;;;;;;5061655;28;20037;-75
2023/05/13 02:50:09;;;;;;;10.38;9.30;;;;;;;;;;5061613;28;20152;-75
2023/05/13 02:52:39;;;;;;;18.15;10.38;;;;;;;;;;5061819;28;20062;-74
2023/05/13 02:55:08;;;;;;;15.65;9.95;;;;;;;;;;5062779;28;20217;-75
2023/05/13 02:57:35;;;;;;;20.10;9.48;;;;;;;;;;5060819;28;20036;-75
2023/05/13 03:00:03;;;;;;;12.02;9.50;;;;;;;;;;5059817;28;20568;-75
2023/05/13 03:02:29;;;;;;;12.45;10.20;;;;;;;;;;5063921;28;20416;-74
2023/05/13 03:04:55;;;;;;;14.60;10.20;;;;;;;;;;5060366;28;20075;-75
2023/05/13 03:07:21;;;;;;;13.88;10.63;;;;;;;;;;5061639;28;20037;-75
2023/05/13 03:09:47;;;;;;;15.60;9.27;;;;;;;;;;5056169;28;20048;-74
2023/05/13 03:12:13;;;;;;;18.60;9.70;;;;;;;;;;5042453;28;21985;-74
2023/05/13 03:14:40;;;;;;;15.48;9.90;;;;;;;;;;5061161;28;20051;-75
2023/05/13 03:17:06;;;;;;;13.23;10.10;;;;;;;;;;5059843;28;20044;-75
2023/05/13 03:19:33;;;;;;;16.33;10.65;;;;;;;;;;5059272;28;20048;-75
2023/05/13 03:21:59;;;;;;;14.60;9.60;;;;;;;;;;5058992;28;20054;-74
2023/05/13 03:24:26;;;;;;;20.83;10.43;;;;;;;;;;5061153;28;20083;-75
2023/05/13 03:26:52;;;;;;;14.23;9.50;;;;;;;;;;5059510;28;21006;-74
2023/05/13 03:29:18;;;;;;;16.02;9.82;;;;;;;;;;5060196;28;20069;-75
2023/05/13 03:31:44;;;;;;;13.57;9.98;;;;;;;;;;5061309;28;20059;-75
2023/05/13 03:34:11;;;;;;;18.15;9.32;;;;;;;;;;5059789;28;20045;-74
2023/05/13 03:36:37;;;;;;;14.70;9.10;;;;;;;;;;5059639;28;20032;-75
2023/05/13 03:39:03;;;;;;;18.73;10.07;;;;;;;;;;5058994;28;20506;-74
2023/05/13 03:41:29;;;;;;;15.27;9.35;;;;;;;;;;5060774;28;20121;-75
2023/05/13 03:43:55;;;;;;;14.13;9.07;;;;;;;;;;5061214;28;20036;-75
2023/05/13 03:46:22;;;;;;;23.70;10.50;;;;;;;;;;5058982;28;20054;-75
2023/05/13 03:48:48;;;;;;;15.25;10.25;;;;;;;;;;5058456;28;20056;-75
2023/05/13 03:51:14;;;;;;;16.77;9.43;;;;;;;;;;5058553;28;20047;-75
2023/05/13 03:53:40;;;;;;;17.48;9.40;;;;;;;;;;5058534;28;20051;-75
2023/05/13 03:56:07;;;;;;;16.92;10.02;;;;;;;;;;5041284;28;20089;-75
2023/05/13 03:58:33;;;;;;;17.08;9.60;;;;;;;;;;5057272;28;20036;-76
2023/05/13 04:00:59;;;;;;;14.38;9.77;;;;;;;;;;5056792;28;20043;-75
2023/05/13 04:03:25;;;;;;;14.75;9.75;;;;;;;;;;5058064;28;20040;-75
2023/05/13 04:05:51;;;;;;;17.50;10.48;;;;;;;;;;5056715;28;20825;-75
2023/05/13 04:08:18;;;;;;;15.57;10.23;;;;;;;;;;5054564;28;20056;-75
2023/05/13 04:10:44;;;;;;;17.65;9.85;;;;;;;;;;5040260;28;20040;-75
2023/05/13 04:13:10;;;;;;;19.15;10.13;;;;;;;;;;5038625;28;20165;-75
2023/05/13 04:15:36;;;;;;;13.77;9.70;;;;;;;;;;5058337;28;20052;-75
2023/05/13 04:18:02;;;;;;;12.63;9.55;;;;;;;;;;5039076;28;20135;-76
2023/05/13 04:20:29;;;;;;;11.85;9.65;;;;;;;;;;5057230;28;20048;-74
2023/05/13 04:22:55;;;;;;;13.70;10.35;;;;;;;;;;5059992;28;20044;-75
2023/05/13 04:25:21;;;;;;;12.60;10.02;;;;;;;;;;5057588;28;20642;-75
2023/05/13 04:27:47;;;;;;;15.52;9.52;;;;;;;;;;5056940;28;20055;-74
2023/05/13 04:30:13;;;;;;;14.57;9.85;;;;;;;;;;5059163;28;20040;-74
2023/05/13 04:32:39;;;;;;;14.82;9.05;;;;;;;;;;5041362;28;20088;-75
2023/05/13 04:35:07;;;;;;;13.80;9.30;;;;;;;;;;5059616;28;20144;-74
2023/05/13 04:37:33;;;;;;;17.15;9.85;;;;;;;;;;5060107;28;20040;-75
2023/05/13 04:39:59;;;;;;;12.63;9.23;;;;;;;;;;5058382;28;21191;-75
2023/05/13 04:42:26;;;;;;;13.25;9.10;;;;;;;;;;5058768;28;20086;-76
2023/05/13 04:44:52;;;;;;;14.15;8.63;;;;;;;;;;5059454;28;20075;-75
2023/05/13 04:47:18;;;;;;;16.00;9.20;;;;;;;;;;5056849;28;20051;-75
2023/05/13 04:49:44;;;;;;;17.13;9.25;;;;;;;;;;5058688;28;21787;-73
2023/05/13 04:52:13;;;;;;;13.65;9.43;;;;;;;;;;5043358;28;20116;-73
2023/05/13 04:54:40;;;;;;;13.40;8.88;;;;;;;;;;5057380;28;20054;-73
2023/05/13 04:57:06;;;;;;;18.50;9.45;;;;;;;;;;5045576;28;20124;-74
2023/05/13 04:59:32;;;;;;;12.75;9.18;;;;;;;;;;5060210;28;20069;-75
2023/05/13 05:01:58;;;;;;;17.52;9.23;;;;;;;;;;5061053;28;20045;-74
2023/05/13 05:04:24;;;;;;;15.70;9.23;;;;;;;;;;5061929;28;20091;-74
2023/05/13 05:06:50;;;;;;;14.43;9.23;;;;;;;;;;5059243;28;20040;-74
2023/05/13 05:09:17;;;;;;;13.95;9.10;;;;;;;;;;5058341;28;20040;-74
2023/05/13 05:11:44;;;;;;;13.88;10.07;;;;;;;;;;5059466;28;20113;-74
2023/05/13 05:14:10;;;;;;;13.23;9.57;;;;;;;;;;5059823;28;20041;-75
2023/05/13 05:16:36;;;;;;;15.80;9.60;;;;;;;;;;5058280;28;20036;-74
2023/05/13 05:19:02;;;;;;;15.48;9.52;;;;;;;;;;5056770;28;20075;-75
2023/05/13 05:21:28;;;;;;;16.55;9.82;;;;;;;;;;5072884;28;20052;-74
2023/05/13 05:23:54;;;;;;;14.93;9.30;;;;;;;;;;5070247;28;20585;-75
2023/05/13 05:26:21;;;;;;;20.02;9.38;;;;;;;;;;5035276;28;20130;-75
2023/05/13 05:28:47;;;;;;;10.40;9.30;;;;;;;;;;5056771;28;20083;-75
2023/05/13 05:31:13;;;;;;;14.55;9.32;;;;;;;;;;5035273;28;20102;-75
2023/05/13 05:33:40;;;;;;;15.90;9.40;;;;;;;;;;5060629;28;20427;-75
2023/05/13 05:36:06;;;;;;;13.85;10.43;;;;;;;;;;5055157;28;20100;-75
2023/05/13 05:38:32;;;;;;;22.35;9.73;;;;;;;;;;5056068;28;20591;-75
2023/05/13 05:40:58;;;;;;;12.43;9.75;;;;;;;;;;5058087;28;20044;-75
2023/05/13 05:43:24;;;;;;;13.52;10.10;;;;;;;;;;5052496;28;20044;-75
2023/05/13 05:45:50;;;;;;;13.02;10.15;;;;;;;;;;5049561;28;20417;-75
2023/05/13 05:48:16;;;;;;;11.45;9.45;;;;;;;;;;5035115;28;20098;-77
2023/05/13 05:50:42;;;;;;;17.38;10.38;;;;;;;;;;5053111;28;20558;-77
2023/05/13 05:53:09;;;;;;;17.98;10.95;;;;;;;;;;5056637;28;20041;-77
2023/05/13 05:55:35;;;;;;;12.70;9.85;;;;;;;;;;5070877;28;20040;-77
2023/05/13 05:58:04;;;;;;;18.13;9.68;;;;;;;;;;5056786;28;20116;-76
2023/05/13 06:00:31;;;;;;;23.25;9.70;;;;;;;;;;5034358;28;20048;-77
2023/05/13 06:02:58;;;;;;;16.33;10.35;;;;;;;;;;5056898;28;20044;-75
2023/05/13 06:05:24;;;;;;;13.18;9.13;;;;;;;;;;5055248;28;20055;-76
2023/05/13 06:07:50;;;;;;;16.23;8.75;;;;;;;;;;5055811;28;20113;-77
2023/05/13 06:10:16;;;;;;;10.80;9.48;;;;;;;;;;5056279;28;20145;-76
2023/05/13 06:12:42;;;;;;;13.60;10.20;;;;;;;;;;5059727;28;20039;-77
2023/05/13 06:15:12;;;;;;;15.13;10.07;;;;;;;;;;5059114;28;20047;-76
2023/05/13 06:17:38;;;;;;;14.20;10.15;;;;;;;;;;5061903;28;20131;-76
2023/05/13 06:20:04;;;;;;;19.67;10.43;;;;;;;;;;5060897;28;20048;-78
2023/05/13 06:22:31;;;;;;;12.15;9.73;;;;;;;;;;5064080;28;20051;-78
2023/05/13 06:24:57;;;;;;;14.70;9.75;;;;;;;;;;5062223;28;20040;-77
2023/05/13 06:27:24;;;;;;;12.55;9.93;;;;;;;;;;5063853;28;20040;-76
2023/05/13 06:29:50;;;;;;;14.05;10.05;;;;;;;;;;5060009;28;20048;-78
2023/05/13 06:32:16;;;;;;;11.57;9.00;;;;;;;;;;5058739;28;20047;-76
2023/05/13 06:34:44;;;;;;;17.77;9.35;;;;;;;;;;5057211;28;20063;-76
2023/05/13 06:37:11;;;;;;;12.25;9.77;;;;;;;;;;5062189;28;20522;-78
2023/05/13 06:39:37;;;;;;;14.57;9.77;;;;;;;;;;5059016;28;20056;-76
2023/05/13 06:42:03;;;;;;;13.27;9.18;;;;;;;;;;5062728;28;20419;-77
2023/05/13 06:44:30;;;;;;;13.27;9.52;;;;;;;;;;5063283;28;20043;-78
2023/05/13 06:46:56;;;;;;;18.15;10.35;;;;;;;;;;5041761;28;20044;-77
2023/05/13 06:49:26;;;;;;;17.00;8.93;;;;;;;;;;5059746;28;20055;-76
2023/05/13 06:51:53;;;;;;;13.65;9.60;;;;;;;;;;5059386;28;20233;-76
2023/05/13 06:54:19;;;;;;;17.88;9.43;;;;;;;;;;5060663;28;20131;-76
2023/05/13 06:56:45;;;;;;;12.65;9.07;;;;;;;;;;5035334;28;20059;-78
2023/05/13 06:59:11;;;;;;;11.15;8.95;;;;;;;;;;5062238;28;20480;-77
2023/05/13 07:01:37;;;;;;;14.70;9.50;;;;;;;;;;5043664;28;20048;-77
2023/05/13 07:04:03;;;;;;;12.57;9.38;;;;;;;;;;5061509;28;20227;-77
2023/05/13 07:06:30;;;;;;;18.75;9.63;;;;;;;;;;5067202;28;20055;-78
2023/05/13 07:08:56;;;;;;;16.90;9.60;;;;;;;;;;5049210;28;20519;-76
2023/05/13 07:11:23;;;;;;;13.45;9.68;;;;;;;;;;5078011;28;21376;-76
2023/05/13 07:13:49;;;;;;;12.60;9.70;;;;;;;;;;5046224;28;20106;-76
2023/05/13 07:16:16;;;;;;;12.27;9.63;;;;;;;;;;5062785;28;20045;-77
2023/05/13 07:18:42;;;;;;;17.63;10.23;;;;;;;;;;5064275;28;20043;-78
2023/05/13 07:21:09;;;;;;;13.45;8.63;;;;;;;;;;5063785;28;20035;-77
2023/05/13 07:23:35;;;;;;;12.27;9.57;;;;;;;;;;5060687;28;20040;-77
2023/05/13 07:26:01;;;;;;;13.93;8.93;;;;;;;;;;5062018;28;20051;-77
2023/05/13 07:28:27;;;;;;;13.20;9.77;;;;;;;;;;5046795;28;20052;-76
2023/05/13 07:30:53;;;;;;;13.15;8.77;;;;;;;;;;5078859;28;20048;-76
2023/05/13 07:33:19;;;;;;;11.85;9.00;;;;;;;;;;5061925;28;20048;-76
2023/05/13 07:35:45;;;;;;;15.20;8.80;;;;;;;;;;5049473;28;20055;-77
2023/05/13 07:38:12;;;;;;;12.23;8.85;;;;;;;;;;5060950;28;20052;-77
2023/05/13 07:40:38;;;;;;;11.07;9.40;;;;;;;;;;5062889;28;20498;-77
2023/05/13 07:43:04;;;;;;;10.40;8.43;;;;;;;;;;5043506;28;20040;-76
2023/05/13 07:45:31;;;;;;;17.13;8.80;;;;;;;;;;5063853;28;20047;-77
2023/05/13 07:47:57;;;;;;;13.48;9.38;;;;;;;;;;5060913;28;20079;-76
2023/05/13 07:50:23;;;;;;;11.48;8.30;;;;;;;;;;5060953;28;20051;-76
2023/05/13 07:52:50;;;;;;;13.48;7.95;;;;;;;;;;5061699;28;20069;-76
2023/05/13 07:55:16;;;;;;;13.13;8.00;;;;;;;;;;5062596;28;20040;-76
2023/05/13 07:57:42;;;;;;;15.27;8.13;;;;;;;;;;5062087;28;20044;-75
2023/05/13 08:00:09;;;;;;;14.60;8.57;;;;;;;;;;5060205;28;22161;-77
2023/05/13 08:02:38;;;;;;;9.75;7.88;;;;;;;;;;5078497;28;20052;-76
2023/05/13 08:05:05;;;;;;;17.73;8.68;;;;;;;;;;5045531;28;20165;-77
2023/05/13 08:07:31;;;;;;;10.70;8.20;;;;;;;;;;5063651;28;20032;-79
2023/05/13 08:09:57;;;;;;;16.73;7.88;;;;;;;;;;5065717;28;20686;-76
2023/05/13 08:12:23;;;;;;;14.50;8.40;;;;;;;;;;5060989;28;20087;-76
2023/05/13 08:14:49;;;;;;;15.30;9.25;;;;;;;;;;5058874;28;20766;-76
2023/05/13 08:17:18;;;;;;;15.02;9.82;;;;;;;;;;5062398;28;20170;-76
2023/05/13 08:19:45;;;;;;;12.05;8.10;;;;;;;;;;5061125;28;20040;-76
2023/05/13 08:22:11;;;;;;;11.00;8.48;;;;;;;;;;5059509;28;20052;-75
2023/05/13 08:24:39;;;;;;;9.60;7.43;;;;;;;;;;5061788;28;20040;-78
2023/05/13 08:27:05;;;;;;;10.25;8.20;;;;;;;;;;5059683;28;20055;-77
2023/05/13 08:29:32;;;;;;;10.85;8.27;;;;;;;;;;5077275;28;20188;-78
2023/05/13 08:31:58;;;;;;;11.65;7.55;;;;;;;;;;5075780;27;20488;-77
2023/05/13 08:34:24;;;;;;;13.18;7.65;;;;;;;;;;5047910;28;20052;-77
2023/05/13 08:36:50;;;;;;;12.80;7.70;;;;;;;;;;5043439;28;21695;-76
2023/05/13 08:39:16;;;;;;;7.53;6.65;;;;;;;;;;5062761;28;20059;-76
2023/05/13 08:41:43;;;;;;;9.75;6.85;;;;;;;;;;5063857;28;20057;-78
2023/05/13 08:44:14;;;;;;;10.38;6.85;;;;;;;;;;5060802;28;20044;-73
2023/05/13 08:46:44;;;;;;;9.57;6.88;;;;;;;;;;5056699;28;20050;-73
2023/05/13 08:49:10;;;;;;;10.77;6.75;;;;;;;;;;5056439;28;20051;-73
2023/05/13 08:51:36;;;;;;;11.93;7.28;;;;;;;;;;5063706;28;20068;-74
2023/05/13 08:54:03;;;;;;;11.02;7.15;;;;;;;;;;5059014;28;20054;-74
2023/05/13 08:56:29;;;;;;;10.65;7.35;;;;;;;;;;5057183;28;20040;-73
2023/05/13 08:58:55;;;;;;;12.50;7.28;;;;;;;;;;5056989;28;20048;-73
2023/05/13 09:01:22;;;;;;;13.70;7.05;;;;;;;;;;5057785;28;20547;-74
2023/05/13 09:03:58;;;;;;;10.20;7.15;;;;;;;;;;5055350;28;20048;-74
2023/05/13 09:06:24;;;;;;;12.18;6.68;;;;;;;;;;5058073;28;20056;-74
2023/05/13 09:08:51;;;;;;;8.77;6.30;;;;;;;;;;5055542;28;20484;-73
2023/05/13 09:11:17;;;;;;;12.93;6.85;;;;;;;;;;5057879;28;20044;-73
2023/05/13 09:13:43;;;;;;;11.88;7.18;;;;;;;;;;5049556;28;20069;-75
2023/05/13 09:16:11;;;;;;;11.10;7.85;;;;;;;;;;5059786;28;20872;-74
2023/05/13 09:18:38;;;;;;;11.85;7.97;;;;;;;;;;5078239;28;20097;-78
2023/05/13 09:21:23;;;;;;;10.95;7.55;;;;;;;;;;5044176;28;20700;-77
2023/05/13 09:23:50;;;;;;;12.60;7.68;;;;;;;;;;5059141;28;20052;-73
2023/05/13 09:26:29;;;;;;;14.13;7.30;;;;;;;;;;5059523;28;20110;-73
2023/05/13 09:29:14;;;;;;;16.30;7.60;;;;;;;;;;5061531;28;20048;-73
2023/05/13 09:31:40;;;;;;;11.18;7.57;;;;;;;;;;5058132;28;20051;-73
2023/05/13 09:34:06;;;;;;;8.73;7.00;;;;;;;;;;5058436;28;20605;-73
2023/05/13 09:36:33;;;;;;;14.00;7.53;;;;;;;;;;5058383;28;20048;-74
2023/05/13 09:38:59;;;;;;;12.50;8.68;;;;;;;;;;5054482;28;20036;-72
2023/05/13 09:41:30;;;;;;;11.00;7.63;;;;;;;;;;5059296;28;20127;-74
2023/05/13 09:43:57;;;;;;;9.82;7.43;;;;;;;;;;5056381;28;20588;-72
2023/05/13 09:46:24;;;;;;;12.95;7.90;;;;;;;;;;5057106;28;20178;-72
2023/05/13 09:48:55;;;;;;;10.98;7.50;;;;;;;;;;5056866;28;20044;-72
2023/05/13 09:51:26;;;;;;;15.07;8.38;;;;;;;;;;5057188;28;20254;-72
2023/05/13 09:53:53;;;;;;;13.15;8.07;;;;;;;;;;5061750;28;20664;-73
2023/05/13 09:56:22;;;;;;;17.45;8.13;;;;;;;;;;5058208;28;21924;-72
2023/05/13 09:58:51;;;;;;;12.65;8.18;;;;;;;;;;5061340;28;20132;-72
2023/05/13 10:01:18;;;;;;;14.02;8.60;;;;;;;;;;5061513;28;20538;-66
2023/05/13 10:03:45;;;;;;;11.88;8.05;;;;;;;;;;5055932;28;20043;-66
2023/05/13 10:06:11;;;;;;;15.13;7.88;;;;;;;;;;5070561;27;20766;-67
2023/05/13 10:08:38;;;;;;;9.70;8.60;;;;;;;;;;5059486;28;20570;-66
2023/05/13 10:11:06;;;;;;;12.55;8.05;;;;;;;;;;5055149;28;20095;-66
2023/05/13 10:13:33;;;;;;;14.00;8.43;;;;;;;;;;5052340;28;20575;-67
2023/05/13 10:15:59;;;;;;;14.07;7.78;;;;;;;;;;5057089;28;21740;-67
2023/05/13 10:18:27;;;;;;;12.18;7.78;;;;;;;;;;5054839;28;20145;-66
2023/05/13 10:20:54;;;;;;;15.35;9.07;;;;;;;;;;5055411;28;20058;-67
2023/05/13 10:23:22;;;;;;;11.90;8.82;;;;;;;;;;5056599;28;20089;-67
2023/05/13 10:25:49;;;;;;;14.95;8.73;;;;;;;;;;5058078;28;20501;-67
2023/05/13 10:28:16;;;;;;;12.95;8.43;;;;;;;;;;5053674;28;20082;-66
2023/05/13 10:30:43;;;;;;;14.30;8.10;;;;;;;;;;5055544;28;20199;-66
2023/05/13 10:33:09;;;;;;;20.25;8.98;;;;;;;;;;5055504;28;20051;-66
2023/05/13 10:35:41;;;;;;;14.77;8.88;;;;;;;;;;5055786;28;20635;-66
2023/05/13 10:38:16;;;;;;;15.32;9.75;;;;;;;;;;5060402;28;20083;-66
2023/05/13 10:41:08;;;;;;;14.50;10.02;;;;;;;;;;5056731;28;20117;-66
2023/05/13 10:43:34;;;;;;;14.27;9.90;;;;;;;;;;5057958;28;20127;-65
2023/05/13 10:46:05;;;;;;;14.15;10.23;;;;;;;;;;5057089;28;20076;-66
2023/05/13 10:48:57;;;;;;;14.38;10.05;;;;;;;;;;5058433;28;20048;-66
2023/05/13 10:51:24;;;;;;;12.63;9.18;;;;;;;;;;5060065;28;20435;-66
2023/05/13 10:53:51;;;;;;;16.92;9.55;;;;;;;;;;5062803;28;20040;-66
2023/05/13 10:56:21;;;;;;;12.45;9.18;;;;;;;;;;5062183;28;20035;-66
2023/05/13 10:58:58;;;;;;;11.55;8.73;;;;;;;;;;5068659;28;20044;-67
2023/05/13 11:01:33;;;;;;;21.85;8.52;;;;;;;;;;5062288;28;20059;-67
2023/05/13 11:04:01;;;;;;;11.32;8.20;;;;;;;;;;5060470;28;20079;-67
2023/05/13 11:06:34;;;;;;;15.02;9.88;;;;;;;;;;5061100;28;20048;-67
2023/05/13 11:09:00;;;;;;;11.73;8.43;;;;;;;;;;5061683;28;20053;-67
2023/05/13 11:11:31;;;;;;;12.88;8.40;;;;;;;;;;5060939;28;20045;-67
2023/05/13 11:14:09;;;;;;;12.10;8.07;;;;;;;;;;5059933;28;20087;-67
2023/05/13 11:16:36;;;;;;;12.45;8.10;;;;;;;;;;5061332;28;20039;-67
2023/05/13 11:19:03;;;;;;;10.27;8.45;;;;;;;;;;5063301;28;20078;-67
2023/05/13 11:21:34;;;;;;;18.55;8.40;;;;;;;;;;5059298;28;20051;-67
2023/05/13 11:24:02;;;;;;;11.27;8.70;;;;;;;;;;5060816;28;20118;-66
2023/05/13 11:26:42;;;;;;;14.23;8.13;;;;;;;;;;5059126;28;20062;-67
2023/05/13 11:29:08;;;;;;;13.38;8.05;;;;;;;;;;5061409;28;20048;-67
2023/05/13 11:31:45;;;;;;;12.43;8.35;;;;;;;;;;5058849;28;20047;-67
2023/05/13 11:34:13;;;;;;;18.02;8.52;;;;;;;;;;5061678;28;20135;-66
2023/05/13 11:36:40;;;;;;;12.05;8.68;;;;;;;;;;5058447;28;20082;-67
2023/05/13 11:39:06;;;;;;;13.05;8.30;;;;;;;;;;5059943;28;20052;-67
2023/05/13 11:41:33;;;;;;;13.80;8.85;;;;;;;;;;5062269;28;20044;-66
2023/05/13 11:44:02;;;;;;;12.45;8.48;;;;;;;;;;5060664;28;20047;-67
2023/05/13 11:46:28;;;;;;;11.57;8.98;;;;;;;;;;5061898;28;20408;-67
2023/05/13 11:48:54;;;;;;;13.07;8.15;;;;;;;;;;5049108;28;20091;-67
2023/05/13 11:51:21;;;;;;;12.70;9.52;;;;;;;;;;5061280;28;20043;-67
2023/05/13 11:53:47;;;;;;;12.15;7.93;;;;;;;;;;5060746;28;20068;-67
2023/05/13 11:56:13;;;;;;;11.23;8.57;;;;;;;;;;5061848;28;20477;-67
2023/05/13 11:58:40;;;;;;;16.40;8.80;;;;;;;;;;5060896;28;20051;-67
2023/05/13 12:01:06;;;;;;;12.93;8.55;;;;;;;;;;5061582;28;20074;-67
2023/05/13 12:03:32;;;;;;;9.82;7.20;;;;;;;;;;5059521;28;20048;-67
2023/05/13 12:06:02;;;;;;;10.07;8.10;;;;;;;;;;5061373;28;20036;-67
2023/05/13 12:08:28;;;;;;;11.80;8.13;;;;;;;;;;5060063;28;20087;-67
2023/05/13 12:10:55;;;;;;;13.02;8.00;;;;;;;;;;5060381;28;20115;-67
2023/05/13 12:13:21;;;;;;;11.70;7.85;;;;;;;;;;5059532;28;20108;-67
2023/05/13 12:15:48;;;;;;;15.75;8.50;;;;;;;;;;5059877;28;20122;-67
2023/05/13 12:18:14;;;;;;;10.73;7.93;;;;;;;;;;5062408;28;20478;-67
2023/05/13 12:20:40;;;;;;;12.43;7.82;;;;;;;;;;5061113;28;20257;-67
2023/05/13 12:23:12;;;;;;;12.35;8.60;;;;;;;;;;5060521;28;20070;-67
2023/05/13 12:25:39;;;;;;;11.32;7.70;;;;;;;;;;5059366;28;20492;-67
2023/05/13 12:28:09;;;;;;;17.40;7.97;;;;;;;;;;5061026;28;20090;-67
2023/05/13 12:30:36;;;;;;;10.93;8.18;;;;;;;;;;5060053;28;22040;-67
2023/05/13 12:33:05;;;;;;;9.55;7.80;;;;;;;;;;5059724;28;20060;-67
2023/05/13 12:35:32;;;;;;;12.13;8.20;;;;;;;;;;5075263;28;20051;-67
2023/05/13 12:38:02;;;;;;;11.32;7.78;;;;;;;;;;5056613;28;20106;-67
2023/05/13 12:40:28;;;;;;;9.88;7.00;;;;;;;;;;5059145;28;20040;-66
2023/05/13 12:42:58;;;;;;;10.65;6.90;;;;;;;;;;5058588;28;20044;-67
2023/05/13 12:45:27;;;;;;;8.93;6.30;;;;;;;;;;5059318;28;20073;-67
2023/05/13 12:47:55;;;;;;;14.32;6.97;;;;;;;;;;5059976;28;20047;-67
2023/05/13 12:50:21;;;;;;;15.25;8.38;;;;;;;;;;5058215;28;20121;-66
2023/05/13 12:52:47;;;;;;;10.90;7.50;;;;;;;;;;5058939;28;20492;-67
2023/05/13 12:55:13;;;;;;;7.88;7.07;;;;;;;;;;5074876;28;20070;-67
2023/05/13 12:57:41;;;;;;;8.73;7.03;;;;;;;;;;5058428;28;21112;-67
2023/05/13 13:00:09;;;;;;;9.68;7.20;;;;;;;;;;5059943;28;20273;-66
2023/05/13 13:02:35;;;;;;;9.48;6.80;;;;;;;;;;5060079;28;20051;-67
2023/05/13 13:05:02;;;;;;;10.73;7.30;;;;;;;;;;5060077;28;20049;-67
2023/05/13 13:07:28;;;;;;;13.35;7.53;;;;;;;;;;5058045;28;20186;-67
2023/05/13 13:09:54;;;;;;;9.52;6.95;;;;;;;;;;5058967;28;20037;-67
2023/05/13 13:12:20;;;;;;;13.55;7.40;;;;;;;;;;5059973;28;20044;-67
2023/05/13 13:14:47;;;;;;;14.02;7.10;;;;;;;;;;5057976;28;21758;-67
2023/05/13 13:17:13;;;;;;;8.85;7.10;;;;;;;;;;5057952;28;20036;-67
2023/05/13 13:19:40;;;;;;;11.02;7.00;;;;;;;;;;5060075;28;20047;-67
2023/05/13 13:22:06;;;;;;;9.32;7.15;;;;;;;;;;5059680;28;20224;-67
2023/05/13 13:24:32;;;;;;;8.18;7.03;;;;;;;;;;5059500;28;20628;-67
2023/05/13 13:26:58;;;;;;;10.40;7.15;;;;;;;;;;5063628;28;20121;-66
2023/05/13 13:29:24;;;;;;;14.60;7.15;;;;;;;;;;5065028;28;20047;-67
2023/05/13 13:31:51;;;;;;;12.95;7.50;;;;;;;;;;5059599;28;20472;-67
2023/05/13 13:34:17;;;;;;;9.15;6.65;;;;;;;;;;5063863;28;20085;-67
2023/05/13 13:36:43;;;;;;;11.55;6.85;;;;;;;;;;5064018;28;20036;-67
2023/05/13 13:39:09;;;;;;;11.63;7.10;;;;;;;;;;5063370;28;20145;-67
2023/05/13 13:41:35;;;;;;;10.57;6.53;;;;;;;;;;5064570;28;20743;-67
2023/05/13 13:44:01;;;;;;;16.95;7.00;;;;;;;;;;5063821;28;20891;-67
2023/05/13 13:46:27;;;;;;;7.75;6.15;;;;;;;;;;5060354;28;20049;-67
2023/05/13 13:48:53;;;;;;;16.35;7.15;;;;;;;;;;5061808;28;20515;-67
2023/05/13 13:51:20;;;;;;;8.20;6.15;;;;;;;;;;5079681;28;20483;-67
2023/05/13 13:53:46;;;;;;;10.20;6.15;;;;;;;;;;5062929;28;20657;-67
2023/05/13 13:56:12;;;;;;;11.93;6.80;;;;;;;;;;5062752;28;20068;-67
2023/05/13 13:58:39;;;;;;;10.82;7.50;;;;;;;;;;5063673;28;20036;-67
2023/05/13 14:01:05;;;;;;;12.40;7.13;;;;;;;;;;5061743;28;20471;-67
2023/05/13 14:03:31;;;;;;;10.82;7.60;;;;;;;;;;5059058;28;20385;-69
2023/05/13 14:05:57;;;;;;;11.57;7.45;;;;;;;;;;5060572;28;20136;-67
2023/05/13 14:08:24;;;;;;;8.68;7.00;;;;;;;;;;5067496;28;20040;-67
2023/05/13 14:10:51;;;;;;;10.55;7.80;;;;;;;;;;5074882;28;20044;-67
2023/05/13 14:13:17;;;;;;;15.60;8.18;;;;;;;;;;5061993;28;20044;-67
2023/05/13 14:15:43;;;;;;;18.05;8.30;;;;;;;;;;5062512;28;20439;-67
2023/05/13 14:18:09;;;;;;;13.02;8.27;;;;;;;;;;5061960;28;20032;-67
2023/05/13 14:20:37;;;;;;;10.48;9.07;;;;;;;;;;5062471;28;20067;-67
2023/05/13 14:23:03;;;;;;;14.15;8.27;;;;;;;;;;5075251;28;20048;-66
2023/05/13 14:25:29;;;;;;;12.32;7.65;;;;;;;;;;5079050;28;21854;-68
2023/05/13 14:27:55;;;;;;;10.50;7.95;;;;;;;;;;5058871;28;20044;-68
2023/05/13 14:30:21;;;;;;;13.88;8.43;;;;;;;;;;5062051;28;20669;-67